Terminal Aerodrome Forecast
Issued by NWS

Home | Current Version | Previous Version | Text Only | Print | Product List | Glossary On
Versions: 1 2 3 4 5 6 7 8 9 10 11 12 13 14 15 16 17 18 19
494
FTUS46 KPDT 122339
TAFPSC
TAF
KPSC 122339Z 1300/1324 VRB06KT P6SM BKN090
     FM130200 VRB06KT P6SM -SHRA OVC050
     FM130500 22007KT P6SM SCT050 BKN100
     FM131200 24008KT P6SM SCT050 SCT100
     FM131800 22011KT P6SM SCT070 BKN120
     FM132000 23014G20KT P6SM OVC070=

USA.gov is the U.S. government's official web portal to all federal, state and local government web resources and services.